sensor_id;sensor_type;location;lat;lon;timestamp;pressure;altitude;pressure_sealevel;temperature;humidity
49122;BME280;35529;44.342;25.944;2023-03-22T00:01:09;100505.00;;;11.66;100.00
49122;BME280;35529;44.342;25.944;2023-03-22T00:03:35;100503.97;;;11.60;100.00
49122;BME280;35529;44.342;25.944;2023-03-22T00:06:02;100501.69;;;11.57;100.00
49122;BME280;35529;44.342;25.944;2023-03-22T00:08:31;100497.59;;;11.54;100.00
49122;BME280;35529;44.342;25.944;2023-03-22T00:11:02;100497.00;;;11.52;100.00
49122;BME280;35529;44.342;25.944;2023-03-22T00:13:34;100487.56;;;11.50;100.00
49122;BME280;35529;44.342;25.944;2023-03-22T00:16:06;100497.78;;;11.46;100.00
49122;BME280;35529;44.342;25.944;2023-03-22T00:18:35;100495.97;;;11.47;100.00
49122;BME280;35529;44.342;25.944;2023-03-22T00:21:01;100494.31;;;11.46;100.00
49122;BME280;35529;44.342;25.944;2023-03-22T00:23:30;100493.47;;;11.45;100.00
49122;BME280;35529;44.342;25.944;2023-03-22T00:25:56;100488.38;;;11.44;100.00
49122;BME280;35529;44.342;25.944;2023-03-22T00:28:22;100486.94;;;11.41;100.00
49122;BME280;35529;44.342;25.944;2023-03-22T00:30:49;100496.13;;;11.38;100.00
49122;BME280;35529;44.342;25.944;2023-03-22T00:33:22;100494.72;;;11.36;100.00
49122;BME280;35529;44.342;25.944;2023-03-22T00:35:49;100495.53;;;11.36;100.00
49122;BME280;35529;44.342;25.944;2023-03-22T00:38:15;100491.66;;;11.39;100.00
49122;BME280;35529;44.342;25.944;2023-03-22T00:40:41;100490.22;;;11.43;100.00
49122;BME280;35529;44.342;25.944;2023-03-22T00:43:07;100484.09;;;11.43;100.00
49122;BME280;35529;44.342;25.944;2023-03-22T00:45:36;100493.47;;;11.45;100.00
49122;BME280;35529;44.342;25.944;2023-03-22T00:48:06;100487.34;;;11.45;100.00
49122;BME280;35529;44.342;25.944;2023-03-22T00:50:35;100489.00;;;11.46;100.00
49122;BME280;35529;44.342;25.944;2023-03-22T00:53:05;100494.72;;;11.43;100.00
49122;BME280;35529;44.342;25.944;2023-03-22T00:55:31;100490.44;;;11.42;100.00
49122;BME280;35529;44.342;25.944;2023-03-22T00:57:57;100488.38;;;11.44;100.00
49122;BME280;35529;44.342;25.944;2023-03-22T01:00:26;100482.84;;;11.38;100.00
49122;BME280;35529;44.342;25.944;2023-03-22T01:02:52;100477.72;;;11.37;100.00
49122;BME280;35529;44.342;25.944;2023-03-22T01:05:21;100484.28;;;11.41;100.00
49122;BME280;35529;44.342;25.944;2023-03-22T01:07:47;100477.53;;;11.38;100.00
49122;BME280;35529;44.342;25.944;2023-03-22T01:10:18;100482.03;;;11.38;100.00
49122;BME280;35529;44.342;25.944;2023-03-22T01:12:44;100486.94;;;11.41;100.00
49122;BME280;35529;44.342;25.944;2023-03-22T01:15:11;100480.19;;;11.38;100.00
49122;BME280;35529;44.342;25.944;2023-03-22T01:17:37;100481.22;;;11.37;100.00
49122;BME280;35529;44.342;25.944;2023-03-22T01:20:03;100477.53;;;11.38;100.00
49122;BME280;35529;44.342;25.944;2023-03-22T01:22:34;100472.41;;;11.37;100.00
49122;BME280;35529;44.342;25.944;2023-03-22T01:25:03;100468.94;;;11.36;100.00
49122;BME280;35529;44.342;25.944;2023-03-22T01:27:34;100467.31;;;11.35;100.00
49122;BME280;35529;44.342;25.944;2023-03-22T01:30:03;100468.31;;;11.34;100.00
49122;BME280;35529;44.342;25.944;2023-03-22T01:32:30;100465.06;;;11.32;100.00
49122;BME280;35529;44.342;25.944;2023-03-22T01:35:02;100463.81;;;11.28;100.00
49122;BME280;35529;44.342;25.944;2023-03-22T01:37:29;100456.84;;;11.27;100.00
49122;BME280;35529;44.342;25.944;2023-03-22T01:39:55;100463.81;;;11.28;100.00
49122;BME280;35529;44.342;25.944;2023-03-22T01:42:22;100455.63;;;11.23;100.00
49122;BME280;35529;44.342;25.944;2023-03-22T01:47:33;100466.84;;;11.25;100.00
49122;BME280;35529;44.342;25.944;2023-03-22T01:49:59;100456.22;;;11.25;100.00
49122;BME280;35529;44.342;25.944;2023-03-22T01:52:25;100465.25;;;11.24;100.00
49122;BME280;35529;44.342;25.944;2023-03-22T01:54:53;100464.81;;;11.20;100.00
49122;BME280;35529;44.342;25.944;2023-03-22T01:57:23;100467.06;;;11.17;100.00
49122;BME280;35529;44.342;25.944;2023-03-22T01:59:49;100464.41;;;11.17;100.00
49122;BME280;35529;44.342;25.944;2023-03-22T02:02:19;100458.28;;;11.16;100.00
49122;BME280;35529;44.342;25.944;2023-03-22T02:04:45;100459.72;;;11.19;100.00
49122;BME280;35529;44.342;25.944;2023-03-22T02:07:15;100462.94;;;11.14;100.00
49122;BME280;35529;44.342;25.944;2023-03-22T02:09:51;100462.31;;;11.05;100.00
49122;BME280;35529;44.342;25.944;2023-03-22T02:12:26;100460.88;;;11.03;100.00
49122;BME280;35529;44.342;25.944;2023-03-22T02:14:57;100460.44;;;10.93;100.00
49122;BME280;35529;44.342;25.944;2023-03-22T02:17:52;100468.59;;;10.84;100.00
49122;BME280;35529;44.342;25.944;2023-03-22T02:20:37;100459.56;;;10.79;100.00
49122;BME280;35529;44.342;25.944;2023-03-22T02:38:55;100463.72;;;10.46;100.00
49122;BME280;35529;44.342;25.944;2023-03-22T02:44:06;100481.06;;;10.49;100.00
49122;BME280;35529;44.342;25.944;2023-03-22T02:46:42;100479.03;;;10.51;100.00
49122;BME280;35529;44.342;25.944;2023-03-22T02:49:17;100480.94;;;10.57;100.00
49122;BME280;35529;44.342;25.944;2023-03-22T02:51:49;100479.28;;;10.56;100.00
49122;BME280;35529;44.342;25.944;2023-03-22T02:54:21;100481.50;;;10.52;100.00
49122;BME280;35529;44.342;25.944;2023-03-22T02:56:58;100481.50;;;10.52;100.00
49122;BME280;35529;44.342;25.944;2023-03-22T02:59:33;67726.06;;;10.26;100.00
49122;BME280;35529;44.342;25.944;2023-03-22T03:02:06;87772.41;;;10.40;100.00
49122;BME280;35529;44.342;25.944;2023-03-22T03:04:54;67726.06;;;-146.62;100.00
49122;BME280;35529;44.342;25.944;2023-03-22T03:07:40;67726.06;;;-146.62;100.00
49122;BME280;35529;44.342;25.944;2023-03-22T03:10:26;100475.91;;;10.40;100.00
49122;BME280;35529;44.342;25.944;2023-03-22T03:13:17;67726.06;;;-146.62;100.00
49122;BME280;35529;44.342;25.944;2023-03-22T03:16:04;67726.06;;;-146.62;100.00
49122;BME280;35529;44.342;25.944;2023-03-22T03:19:02;67726.06;;;-146.62;100.00
49122;BME280;35529;44.342;25.944;2023-03-22T03:21:55;67726.06;;;-146.62;100.00
49122;BME280;35529;44.342;25.944;2023-03-22T03:31:38;67726.06;;;-146.62;100.00
49122;BME280;35529;44.342;25.944;2023-03-22T03:34:09;67726.06;;;-146.62;100.00
49122;BME280;35529;44.342;25.944;2023-03-22T03:36:48;100475.91;;;10.40;100.00
49122;BME280;35529;44.342;25.944;2023-03-22T03:39:38;67726.06;;;-146.62;100.00
49122;BME280;35529;44.342;25.944;2023-03-22T03:42:26;67726.06;;;-146.62;100.00
49122;BME280;35529;44.342;25.944;2023-03-22T03:45:17;67726.06;;;-146.62;100.00
49122;BME280;35529;44.342;25.944;2023-03-22T03:48:08;67726.06;;;-146.62;100.00
49122;BME280;35529;44.342;25.944;2023-03-22T03:51:00;67726.06;;;-146.62;100.00
49122;BME280;35529;44.342;25.944;2023-03-22T03:53:47;67726.06;;;-146.62;100.00
49122;BME280;35529;44.342;25.944;2023-03-22T03:56:36;67726.06;;;-146.62;100.00
49122;BME280;35529;44.342;25.944;2023-03-22T03:59:28;67726.06;;;-146.62;100.00
49122;BME280;35529;44.342;25.944;2023-03-22T04:02:17;67726.06;;;-146.62;100.00
49122;BME280;35529;44.342;25.944;2023-03-22T04:05:10;67726.06;;;-146.62;100.00
49122;BME280;35529;44.342;25.944;2023-03-22T04:08:00;67726.06;;;-146.62;100.00
49122;BME280;35529;44.342;25.944;2023-03-22T04:10:50;67726.06;;;-146.62;100.00
49122;BME280;35529;44.342;25.944;2023-03-22T04:13:37;67726.06;;;-146.62;100.00
49122;BME280;35529;44.342;25.944;2023-03-22T04:16:23;67726.06;;;-146.62;100.00
49122;BME280;35529;44.342;25.944;2023-03-22T04:19:13;67726.06;;;-146.62;100.00
49122;BME280;35529;44.342;25.944;2023-03-22T04:22:00;67726.06;;;-146.62;100.00
49122;BME280;35529;44.342;25.944;2023-03-22T04:24:54;67726.06;;;-146.62;100.00
49122;BME280;35529;44.342;25.944;2023-03-22T04:27:44;67726.06;;;-146.62;100.00
49122;BME280;35529;44.342;25.944;2023-03-22T04:30:35;67726.06;;;-146.62;100.00
49122;BME280;35529;44.342;25.944;2023-03-22T04:33:25;67726.06;;;-146.62;100.00
49122;BME280;35529;44.342;25.944;2023-03-22T04:36:12;67726.06;;;-146.62;100.00
49122;BME280;35529;44.342;25.944;2023-03-22T04:39:03;67726.06;;;-146.62;100.00
49122;BME280;35529;44.342;25.944;2023-03-22T04:41:55;67726.06;;;-146.62;100.00
49122;BME280;35529;44.342;25.944;2023-03-22T04:44:42;67726.06;;;-146.62;100.00
49122;BME280;35529;44.342;25.944;2023-03-22T04:47:29;67726.06;;;-146.62;100.00
49122;BME280;35529;44.342;25.944;2023-03-22T04:50:20;67726.06;;;-146.62;100.00
49122;BME280;35529;44.342;25.944;2023-03-22T04:53:07;67726.06;;;-146.62;100.00
49122;BME280;35529;44.342;25.944;2023-03-22T04:55:57;67726.06;;;-146.62;100.00
49122;BME280;35529;44.342;25.944;2023-03-22T04:58:47;67726.06;;;-146.62;100.00
49122;BME280;35529;44.342;25.944;2023-03-22T05:01:14;100560.03;;;9.90;100.00
49122;BME280;35529;44.342;25.944;2023-03-22T05:03:44;100559.19;;;9.89;100.00
49122;BME280;35529;44.342;25.944;2023-03-22T05:06:13;100570.25;;;9.93;100.00
49122;BME280;35529;44.342;25.944;2023-03-22T05:08:43;100560.03;;;9.90;100.00
49122;BME280;35529;44.342;25.944;2023-03-22T05:11:12;100572.38;;;9.83;100.00
49122;BME280;35529;44.342;25.944;2023-03-22T05:13:45;100576.50;;;9.85;100.00
49122;BME280;35529;44.342;25.944;2023-03-22T05:16:20;100573.66;;;9.87;100.00
49122;BME280;35529;44.342;25.944;2023-03-22T05:18:55;100577.31;;;9.86;100.00
49122;BME280;35529;44.342;25.944;2023-03-22T05:21:25;100576.09;;;9.88;100.00
49122;BME280;35529;44.342;25.944;2023-03-22T05:23:54;100587.53;;;9.89;100.00
49122;BME280;35529;44.342;25.944;2023-03-22T05:26:22;100589.63;;;9.94;100.00
49122;BME280;35529;44.342;25.944;2023-03-22T05:28:51;100584.13;;;9.95;100.00
49122;BME280;35529;44.342;25.944;2023-03-22T05:31:20;100589.06;;;9.98;100.00
49122;BME280;35529;44.342;25.944;2023-03-22T05:33:47;100590.72;;;9.99;100.00
49122;BME280;35529;44.342;25.944;2023-03-22T05:36:17;100590.34;;;10.02;100.00
49122;BME280;35529;44.342;25.944;2023-03-22T05:39:02;100603.06;;;10.14;100.00
49122;BME280;35529;44.342;25.944;2023-03-22T05:47:45;100616.00;;;10.38;100.00
49122;BME280;35529;44.342;25.944;2023-03-22T05:50:20;100612.75;;;10.43;100.00
49122;BME280;35529;44.342;25.944;2023-03-22T05:52:49;100616.41;;;10.42;100.00
49122;BME280;35529;44.342;25.944;2023-03-22T05:55:27;100621.16;;;10.47;100.00
49122;BME280;35529;44.342;25.944;2023-03-22T05:58:16;100624.31;;;10.57;100.00
49122;BME280;35529;44.342;25.944;2023-03-22T06:00:46;100623.75;;;10.68;100.00
49122;BME280;35529;44.342;25.944;2023-03-22T06:03:21;100619.09;;;10.70;100.00
49122;BME280;35529;44.342;25.944;2023-03-22T06:05:52;100626.06;;;10.78;100.00
49122;BME280;35529;44.342;25.944;2023-03-22T06:08:20;100632.88;;;10.87;100.00
49122;BME280;35529;44.342;25.944;2023-03-22T06:10:59;100638.66;;;10.98;100.00
49122;BME280;35529;44.342;25.944;2023-03-22T06:13:31;100644.47;;;11.08;100.00
49122;BME280;35529;44.342;25.944;2023-03-22T06:16:17;100646.97;;;11.16;100.00
49122;BME280;35529;44.342;25.944;2023-03-22T06:19:06;100655.38;;;11.20;100.00
49122;BME280;35529;44.342;25.944;2023-03-22T06:21:42;100650.66;;;11.22;100.00
49122;BME280;35529;44.342;25.944;2023-03-22T06:24:34;100660.69;;;11.20;100.00
49122;BME280;35529;44.342;25.944;2023-03-22T06:27:08;100661.09;;;11.23;100.00
49122;BME280;35529;44.342;25.944;2023-03-22T06:32:52;100660.13;;;11.31;100.00
49122;BME280;35529;44.342;25.944;2023-03-22T06:47:04;100663.97;;;11.29;100.00
49122;BME280;35529;44.342;25.944;2023-03-22T06:49:34;100667.88;;;11.33;100.00
49122;BME280;35529;44.342;25.944;2023-03-22T06:52:17;100671.19;;;11.35;100.00
49122;BME280;35529;44.342;25.944;2023-03-22T06:55:07;100669.38;;;11.42;100.00
49122;BME280;35529;44.342;25.944;2023-03-22T06:57:50;100671.03;;;11.50;100.00
49122;BME280;35529;44.342;25.944;2023-03-22T07:00:39;100670.88;;;11.58;100.00
49122;BME280;35529;44.342;25.944;2023-03-22T07:03:31;100677.00;;;11.58;100.00
49122;BME280;35529;44.342;25.944;2023-03-22T07:12:38;100682.56;;;11.70;100.00
49122;BME280;35529;44.342;25.944;2023-03-22T07:15:28;100685.66;;;11.74;100.00
49122;BME280;35529;44.342;25.944;2023-03-22T07:23:36;67726.06;;;-146.62;100.00
49122;BME280;35529;44.342;25.944;2023-03-22T07:26:28;100684.34;;;11.98;100.00
49122;BME280;35529;44.342;25.944;2023-03-22T07:29:13;100684.09;;;11.93;100.00
49122;BME280;35529;44.342;25.944;2023-03-22T07:35:05;100685.78;;;12.01;100.00
49122;BME280;35529;44.342;25.944;2023-03-22T07:40:56;100696.75;;;12.60;100.00
49122;BME280;35529;44.342;25.944;2023-03-22T07:43:28;100693.22;;;12.72;100.00
49122;BME280;35529;44.342;25.944;2023-03-22T07:45:59;100702.66;;;12.82;100.00
49122;BME280;35529;44.342;25.944;2023-03-22T07:48:27;100693.22;;;12.86;100.00
49122;BME280;35529;44.342;25.944;2023-03-22T07:54:04;100688.94;;;12.98;100.00
49122;BME280;35529;44.342;25.944;2023-03-22T07:56:33;100687.72;;;13.01;100.00
49122;BME280;35529;44.342;25.944;2023-03-22T08:02:11;100692.22;;;12.80;100.00
49122;BME280;35529;44.342;25.944;2023-03-22T08:04:37;100698.78;;;12.84;100.00
49122;BME280;35529;44.342;25.944;2023-03-22T08:07:07;100702.06;;;12.86;100.00
49122;BME280;35529;44.342;25.944;2023-03-22T08:09:43;100700.84;;;12.96;100.00
49122;BME280;35529;44.342;25.944;2023-03-22T08:12:20;100699.19;;;13.01;100.00
49122;BME280;35529;44.342;25.944;2023-03-22T08:14:54;100701.84;;;12.88;100.00
49122;BME280;35529;44.342;25.944;2023-03-22T08:17:49;100710.28;;;12.85;100.00
49122;BME280;35529;44.342;25.944;2023-03-22T08:20:18;100710.88;;;12.87;100.00
49122;BME280;35529;44.342;25.944;2023-03-22T08:22:44;100714.16;;;12.82;100.00
49122;BME280;35529;44.342;25.944;2023-03-22T08:25:14;100711.50;;;12.89;100.00
49122;BME280;35529;44.342;25.944;2023-03-22T08:27:43;100719.50;;;12.82;100.00
49122;BME280;35529;44.342;25.944;2023-03-22T08:30:12;100708.63;;;12.77;100.00
49122;BME280;35529;44.342;25.944;2023-03-22T08:32:39;100721.75;;;12.79;100.00
49122;BME280;35529;44.342;25.944;2023-03-22T08:35:11;100710.28;;;12.85;100.00
49122;BME280;35529;44.342;25.944;2023-03-22T08:37:40;100715.19;;;12.81;100.00
49122;BME280;35529;44.342;25.944;2023-03-22T08:40:10;100715.19;;;12.81;100.00
49122;BME280;35529;44.342;25.944;2023-03-22T08:42:36;100717.63;;;12.83;100.00
49122;BME280;35529;44.342;25.944;2023-03-22T08:45:06;100718.66;;;12.88;100.00
49122;BME280;35529;44.342;25.944;2023-03-22T08:47:38;100722.75;;;12.98;100.00
49122;BME280;35529;44.342;25.944;2023-03-22T08:50:09;100722.75;;;13.04;100.00
49122;BME280;35529;44.342;25.944;2023-03-22T08:52:38;100725.41;;;12.98;100.00
49122;BME280;35529;44.342;25.944;2023-03-22T08:55:08;100728.91;;;12.85;100.00
49122;BME280;35529;44.342;25.944;2023-03-22T08:57:39;100722.16;;;12.76;100.00
49122;BME280;35529;44.342;25.944;2023-03-22T09:00:05;100722.16;;;12.82;100.00
49122;BME280;35529;44.342;25.944;2023-03-22T09:02:37;100726.25;;;12.98;100.00
49122;BME280;35529;44.342;25.944;2023-03-22T09:05:03;100727.06;;;13.05;100.00
49122;BME280;35529;44.342;25.944;2023-03-22T09:07:29;100725.84;;;13.01;100.00
49122;BME280;35529;44.342;25.944;2023-03-22T09:09:58;100723.78;;;13.03;100.00
49122;BME280;35529;44.342;25.944;2023-03-22T09:12:27;100725.00;;;13.07;100.00
49122;BME280;35529;44.342;25.944;2023-03-22T09:15:01;100723.38;;;13.13;100.00
49122;BME280;35529;44.342;25.944;2023-03-22T09:17:32;100730.94;;;13.10;100.00
49122;BME280;35529;44.342;25.944;2023-03-22T09:20:01;100728.28;;;13.03;100.00
49122;BME280;35529;44.342;25.944;2023-03-22T09:22:27;100728.91;;;12.98;100.00
49122;BME280;35529;44.342;25.944;2023-03-22T09:24:53;100731.59;;;12.98;100.00
49122;BME280;35529;44.342;25.944;2023-03-22T09:27:25;100739.16;;;13.01;100.00
49122;BME280;35529;44.342;25.944;2023-03-22T09:29:51;100738.13;;;12.96;100.00
49122;BME280;35529;44.342;25.944;2023-03-22T09:32:18;100735.28;;;12.84;100.00
49122;BME280;35529;44.342;25.944;2023-03-22T09:34:44;100727.06;;;12.72;100.00
49122;BME280;35529;44.342;25.944;2023-03-22T09:37:10;100733.63;;;12.69;100.00
49122;BME280;35529;44.342;25.944;2023-03-22T09:39:38;100727.28;;;12.70;100.00
49122;BME280;35529;44.342;25.944;2023-03-22T09:42:06;100734.25;;;12.78;100.00
49122;BME280;35529;44.342;25.944;2023-03-22T09:44:37;100737.31;;;12.82;100.00
49122;BME280;35529;44.342;25.944;2023-03-22T09:50:00;100728.28;;;12.69;100.00
49122;BME280;35529;44.342;25.944;2023-03-22T09:52:36;100729.72;;;12.72;100.00
49122;BME280;35529;44.342;25.944;2023-03-22T09:55:28;100736.50;;;12.74;100.00
49122;BME280;35529;44.342;25.944;2023-03-22T09:58:11;100732.41;;;12.79;100.00
49122;BME280;35529;44.342;25.944;2023-03-22T10:05:51;100737.31;;;12.75;100.00
49122;BME280;35529;44.342;25.944;2023-03-22T10:10:53;100724.63;;;12.84;100.00
49122;BME280;35529;44.342;25.944;2023-03-22T10:13:35;100731.59;;;12.85;100.00
49122;BME280;35529;44.342;25.944;2023-03-22T10:16:05;100737.31;;;12.82;100.00
49122;BME280;35529;44.342;25.944;2023-03-22T10:18:48;100744.50;;;12.81;100.00
49122;BME280;35529;44.342;25.944;2023-03-22T10:21:16;100740.81;;;12.76;100.00
49122;BME280;35529;44.342;25.944;2023-03-22T10:23:53;100731.16;;;12.74;100.00
49122;BME280;35529;44.342;25.944;2023-03-22T10:26:21;100729.53;;;12.73;100.00
49122;BME280;35529;44.342;25.944;2023-03-22T10:28:55;100729.13;;;12.70;100.00
49122;BME280;35529;44.342;25.944;2023-03-22T10:31:26;100735.06;;;12.65;100.00
49122;BME280;35529;44.342;25.944;2023-03-22T10:33:54;100735.69;;;12.67;100.00
49122;BME280;35529;44.342;25.944;2023-03-22T10:36:24;100734.63;;;12.68;100.00
49122;BME280;35529;44.342;25.944;2023-03-22T10:38:58;100730.53;;;12.66;100.00
49122;BME280;35529;44.342;25.944;2023-03-22T10:41:31;100730.94;;;12.69;100.00
49122;BME280;35529;44.342;25.944;2023-03-22T10:43:59;100731.78;;;12.77;100.00
49122;BME280;35529;44.342;25.944;2023-03-22T10:46:33;100727.50;;;12.82;100.00
49122;BME280;35529;44.342;25.944;2023-03-22T10:49:04;100728.50;;;12.88;100.00
49122;BME280;35529;44.342;25.944;2023-03-22T10:53:59;100730.94;;;13.03;100.00
49122;BME280;35529;44.342;25.944;2023-03-22T10:56:27;100726.25;;;13.12;100.00
49122;BME280;35529;44.342;25.944;2023-03-22T10:58:53;100716.16;;;13.14;100.00
49122;BME280;35529;44.342;25.944;2023-03-22T11:01:24;100716.56;;;13.24;100.00
49122;BME280;35529;44.342;25.944;2023-03-22T11:03:57;100719.63;;;13.34;100.00
49122;BME280;35529;44.342;25.944;2023-03-22T11:06:34;100720.44;;;13.35;100.00
49122;BME280;35529;44.342;25.944;2023-03-22T11:09:14;100711.63;;;13.34;100.00
49122;BME280;35529;44.342;25.944;2023-03-22T11:11:57;100715.31;;;13.33;100.00
49122;BME280;35529;44.342;25.944;2023-03-22T11:17:10;100708.34;;;13.32;100.00
49122;BME280;35529;44.342;25.944;2023-03-22T11:20:00;100709.00;;;13.28;100.00
49122;BME280;35529;44.342;25.944;2023-03-22T11:22:51;100705.69;;;13.25;100.00
49122;BME280;35529;44.342;25.944;2023-03-22T11:25:31;100704.69;;;13.20;100.00
49122;BME280;35529;44.342;25.944;2023-03-22T11:28:12;100708.16;;;13.14;100.00
49122;BME280;35529;44.342;25.944;2023-03-22T11:30:41;100703.88;;;13.13;100.00
49122;BME280;35529;44.342;25.944;2023-03-22T11:33:21;100701.63;;;13.10;100.00
49122;BME280;35529;44.342;25.944;2023-03-22T11:35:57;100700.19;;;13.07;100.00
49122;BME280;35529;44.342;25.944;2023-03-22T11:38:28;100703.25;;;13.11;100.00
49122;BME280;35529;44.342;25.944;2023-03-22T11:41:40;100699.59;;;13.12;100.00
49122;BME280;35529;44.342;25.944;2023-03-22T11:43:47;100699.97;;;13.15;100.00
49122;BME280;35529;44.342;25.944;2023-03-22T11:46:16;100702.84;;;13.20;100.00
49122;BME280;35529;44.342;25.944;2023-03-22T11:48:46;100694.22;;;13.25;100.00
49122;BME280;35529;44.342;25.944;2023-03-22T11:51:28;100691.53;;;13.32;100.00
49122;BME280;35529;44.342;25.944;2023-03-22T11:54:40;100683.34;;;13.40;100.00
49122;BME280;35529;44.342;25.944;2023-03-22T11:56:50;100690.06;;;13.56;100.00
49122;BME280;35529;44.342;25.944;2023-03-22T12:02:31;100686.59;;;13.94;100.00
49122;BME280;35529;44.342;25.944;2023-03-22T12:05:05;100685.28;;;14.10;100.00
49122;BME280;35529;44.342;25.944;2023-03-22T12:07:34;100690.06;;;14.33;100.00
49122;BME280;35529;44.342;25.944;2023-03-22T12:12:35;100676.50;;;14.67;100.00
49122;BME280;35529;44.342;25.944;2023-03-22T12:15:05;100674.44;;;14.87;100.00
49122;BME280;35529;44.342;25.944;2023-03-22T12:22:55;100664.97;;;15.29;100.00
49122;BME280;35529;44.342;25.944;2023-03-22T12:25:23;100660.38;;;15.36;100.00
49122;BME280;35529;44.342;25.944;2023-03-22T12:27:57;100659.09;;;15.38;100.00
49122;BME280;35529;44.342;25.944;2023-03-22T12:30:30;100660.75;;;15.39;100.00
49122;BME280;35529;44.342;25.944;2023-03-22T12:32:58;100660.28;;;15.42;100.00
49122;BME280;35529;44.342;25.944;2023-03-22T12:35:30;100656.63;;;15.55;100.00
49122;BME280;35529;44.342;25.944;2023-03-22T12:37:58;100657.59;;;15.61;100.00
49122;BME280;35529;44.342;25.944;2023-03-22T12:40:39;100652.88;;;15.75;100.00
49122;BME280;35529;44.342;25.944;2023-03-22T12:43:15;100644.50;;;15.90;100.00
49122;BME280;35529;44.342;25.944;2023-03-22T12:45:44;100649.38;;;15.93;100.00
49122;BME280;35529;44.342;25.944;2023-03-22T12:48:14;100646.31;;;15.89;100.00
49122;BME280;35529;44.342;25.944;2023-03-22T12:50:51;100644.25;;;15.91;100.00
49122;BME280;35529;44.342;25.944;2023-03-22T12:53:18;100644.50;;;15.90;100.00
49122;BME280;35529;44.342;25.944;2023-03-22T12:55:45;100647.66;;;15.99;100.00
49122;BME280;35529;44.342;25.944;2023-03-22T12:58:22;100646.59;;;16.00;100.00
49122;BME280;35529;44.342;25.944;2023-03-22T13:01:00;100647.28;;;15.95;100.00
49122;BME280;35529;44.342;25.944;2023-03-22T13:03:43;100651.91;;;15.88;100.00
49122;BME280;35529;44.342;25.944;2023-03-22T13:09:08;100648.00;;;16.02;100.00
49122;BME280;35529;44.342;25.944;2023-03-22T13:11:44;100649.19;;;16.06;100.00
49122;BME280;35529;44.342;25.944;2023-03-22T13:17:05;100647.59;;;16.29;100.00
49122;BME280;35529;44.342;25.944;2023-03-22T13:19:35;100638.41;;;16.25;100.00
49122;BME280;35529;44.342;25.944;2023-03-22T13:22:21;100642.19;;;16.05;100.00
49122;BME280;35529;44.342;25.944;2023-03-22T13:30:23;100642.47;;;15.18;100.00
49122;BME280;35529;44.342;25.944;2023-03-22T13:32:54;100648.22;;;14.96;100.00
49122;BME280;35529;44.342;25.944;2023-03-22T13:35:55;100647.94;;;14.86;100.00
49122;BME280;35529;44.342;25.944;2023-03-22T13:38:22;100649.41;;;14.82;100.00
49122;BME280;35529;44.342;25.944;2023-03-22T13:41:03;100643.69;;;14.78;100.00
49122;BME280;35529;44.342;25.944;2023-03-22T13:51:15;100655.63;;;14.75;100.00
49122;BME280;35529;44.342;25.944;2023-03-22T13:53:48;100650.75;;;14.72;100.00
49122;BME280;35529;44.342;25.944;2023-03-22T13:56:32;100652.97;;;14.75;100.00
49122;BME280;35529;44.342;25.944;2023-03-22T13:59:01;100649.19;;;14.83;100.00
49122;BME280;35529;44.342;25.944;2023-03-22T14:04:00;100642.31;;;14.94;100.00
49122;BME280;35529;44.342;25.944;2023-03-22T14:06:31;100647.41;;;14.96;100.00
49122;BME280;35529;44.342;25.944;2023-03-22T14:09:00;100643.78;;;14.90;100.00
49122;BME280;35529;44.342;25.944;2023-03-22T14:14:02;100639.53;;;14.82;100.00
49122;BME280;35529;44.342;25.944;2023-03-22T14:18:55;100650.78;;;14.91;100.00
49122;BME280;35529;44.342;25.944;2023-03-22T14:21:24;100645.25;;;14.86;100.00
49122;BME280;35529;44.342;25.944;2023-03-22T14:23:56;100638.72;;;14.82;100.00
49122;BME280;35529;44.342;25.944;2023-03-22T14:26:24;100642.44;;;14.81;100.00
49122;BME280;35529;44.342;25.944;2023-03-22T14:28:51;100644.56;;;14.72;100.00
49122;BME280;35529;44.342;25.944;2023-03-22T14:31:25;100655.19;;;14.79;100.00
49122;BME280;35529;44.342;25.944;2023-03-22T14:33:54;100652.25;;;14.87;100.00
49122;BME280;35529;44.342;25.944;2023-03-22T14:36:27;100657.00;;;14.85;100.00
49122;BME280;35529;44.342;25.944;2023-03-22T14:38:57;100648.97;;;14.85;100.00
49122;BME280;35529;44.342;25.944;2023-03-22T14:41:28;100652.38;;;14.73;100.00
49122;BME280;35529;44.342;25.944;2023-03-22T14:43:59;100652.06;;;14.63;100.00
49122;BME280;35529;44.342;25.944;2023-03-22T14:46:35;100652.88;;;14.57;100.00
49122;BME280;35529;44.342;25.944;2023-03-22T14:49:03;100668.78;;;14.45;100.00
49122;BME280;35529;44.342;25.944;2023-03-22T14:51:36;100667.44;;;14.36;100.00
49122;BME280;35529;44.342;25.944;2023-03-22T14:54:04;100665.50;;;14.18;100.00
49122;BME280;35529;44.342;25.944;2023-03-22T14:56:33;100666.41;;;14.05;100.00
49122;BME280;35529;44.342;25.944;2023-03-22T14:59:10;100671.41;;;13.95;100.00
49122;BME280;35529;44.342;25.944;2023-03-22T15:10:28;100675.00;;;13.75;100.00
49122;BME280;35529;44.342;25.944;2023-03-22T15:13:17;100679.91;;;13.71;100.00
49122;BME280;35529;44.342;25.944;2023-03-22T15:15:54;100680.50;;;13.80;100.00
49122;BME280;35529;44.342;25.944;2023-03-22T15:18:32;100679.66;;;13.86;100.00
49122;BME280;35529;44.342;25.944;2023-03-22T15:20:59;100683.53;;;13.90;100.00
49122;BME280;35529;44.342;25.944;2023-03-22T15:23:34;100677.78;;;13.94;100.00